Main page
METAR-TAF:

METAR-TAF

Airports :

Florida Keys Marathon Airport

Marathon, Florida, United States

latitude: 24-43-33N, longitude: 081-02-52W, elevation: 7 ft

Current weather observation

The report was made 2 hours and 24 minutes ago, at 22:53 UTC
Wind 9 mph from the West/Northwest
Temperature 81°F
Humidity 54%
Pressure 29.90 in. Hg
Visibility: 10 miles
Clear sky

METAR: KMTH 022253Z AUTO 30008KT 10SM CLR 27/17 A2990 RMK AO2 SLP124 T02720172

Time: 21:17 (01:17 UTC)

Forecast

The report was made 1 hour and 57 minutes ago, at 23:20 UTC
Forecast valid from 03 at 00 UTC to 03 at 24 UTC
Wind 9 mph from the Northwest
Visibility: 6 miles
Few clouds at a height of 6000 ft

TAF: KMTH 022320Z 0300/0324 32008KT P6SM FEW060

Weather observations and forecasts of more than 4000 airports (METAR and TAF reports).

The available stations are represented by yellow and red dots on the map.

Hover mouse over dot to see the name of the station.

Then click to see weather observations and forecasts.

To change the map : click on the green buttons with a black cross to zoom in, on the green button with a dash to zoom out, or on the green arrows for adjacent maps.


METAR-TAF: